createdAt,value
2023-05-15T09:57:38.327Z,17024.00
2023-05-15T09:58:38.285Z,16736.00
2023-05-15T10:00:25.906Z,19104.00
2023-05-15T10:01:25.686Z,19104.00
2023-05-15T10:02:25.675Z,19520.00
2023-05-15T10:03:25.654Z,19968.00
2023-05-15T10:04:25.639Z,19296.00
2023-05-15T10:05:41.598Z,17280.00
2023-05-15T10:11:59.531Z,20320.00
2023-05-15T10:12:59.492Z,21280.00
2023-05-15T10:13:59.486Z,21792.00
2023-05-15T10:14:59.580Z,22112.00
2023-05-15T10:15:59.521Z,23328.00
2023-05-15T10:16:59.430Z,24704.00
2023-05-15T10:17:59.489Z,25440.00
2023-05-15T10:18:59.421Z,25312.00
2023-05-15T10:19:59.423Z,24960.00
2023-05-15T10:20:59.399Z,24352.00
2023-05-15T10:21:59.353Z,24288.00
2023-05-15T10:22:59.365Z,23264.00
2023-05-15T10:24:06.899Z,22432.00
2023-05-15T10:24:59.361Z,21536.00
2023-05-15T10:25:59.295Z,20448.00
2023-05-15T10:26:59.304Z,20224.00
2023-05-15T10:27:59.285Z,20000.00
2023-05-15T10:28:59.279Z,20032.00
2023-05-15T10:29:59.264Z,19968.00
2023-05-15T10:30:59.280Z,19872.00
2023-05-15T10:31:59.271Z,19744.00
2023-05-15T10:32:59.209Z,19872.00
2023-05-15T10:33:59.173Z,19808.00
2023-05-15T10:34:59.202Z,19712.00
2023-05-15T10:35:59.165Z,19360.00
2023-05-15T10:36:59.136Z,18560.00
2023-05-15T10:37:59.120Z,18144.00
2023-05-15T10:38:59.109Z,17344.00
2023-05-15T10:39:59.098Z,16268.00
2023-05-15T10:41:13.039Z,15468.00
2023-05-15T10:41:59.077Z,15068.00
2023-05-15T10:42:59.080Z,15028.00
2023-05-15T10:43:59.046Z,15232.00
2023-05-15T10:44:59.049Z,15284.00
2023-05-15T10:45:59.002Z,14492.00
2023-05-15T10:46:59.045Z,14088.00
2023-05-15T10:47:59.043Z,13884.00
2023-05-15T10:48:58.959Z,13932.00
2023-05-15T10:49:58.942Z,14716.00
2023-05-15T10:50:58.959Z,14836.00
2023-05-15T10:51:58.904Z,14504.00
2023-05-15T10:52:58.905Z,15132.00
2023-05-15T10:53:58.879Z,15768.00
2023-05-15T10:54:58.872Z,16112.00
2023-05-15T10:55:58.915Z,16668.00
2023-05-15T10:56:58.850Z,17024.00
2023-05-15T10:57:58.826Z,16352.00
2023-05-15T10:58:58.824Z,16076.00
2023-05-15T10:59:58.810Z,15960.00
2023-05-15T11:00:58.820Z,15944.00
2023-05-15T11:01:58.779Z,15628.00
2023-05-15T11:02:58.878Z,15180.00
2023-05-15T11:03:58.763Z,15136.00
2023-05-15T11:04:58.744Z,15276.00
2023-05-15T11:05:58.720Z,14712.00
2023-05-15T11:06:58.700Z,14160.00
2023-05-15T11:07:58.687Z,13972.00
2023-05-15T11:08:58.669Z,14144.00
2023-05-15T11:09:58.649Z,14308.00
2023-05-15T11:10:58.653Z,14792.00
2023-05-15T11:11:58.634Z,14052.00
2023-05-15T11:12:58.605Z,13820.00
2023-05-15T11:13:58.588Z,13852.00
2023-05-15T11:14:58.578Z,13920.00
2023-05-15T11:15:58.571Z,13976.00
2023-05-15T11:16:58.590Z,13580.00
2023-05-15T11:17:58.562Z,13564.00
2023-05-15T11:18:58.578Z,13556.00
2023-05-15T11:19:58.570Z,13752.00
2023-05-15T11:20:58.527Z,13492.00
2023-05-15T11:21:58.495Z,13552.00
2023-05-15T11:22:58.464Z,14300.00
2023-05-15T11:23:58.468Z,15140.00
2023-05-15T11:24:58.470Z,14900.00
2023-05-15T11:25:58.443Z,13988.00
2023-05-15T11:26:59.244Z,13580.00
2023-05-15T11:27:58.384Z,14092.00
2023-05-15T11:28:58.378Z,13964.00
2023-05-15T11:29:58.385Z,13540.00
2023-05-15T11:30:58.408Z,13512.00
2023-05-15T11:31:58.354Z,13424.00
2023-05-15T11:32:58.598Z,14024.00
2023-05-15T11:33:58.303Z,14032.00
2023-05-15T11:34:58.379Z,14196.00
2023-05-15T11:35:58.293Z,14228.00
2023-05-15T11:36:58.287Z,14144.00
2023-05-15T11:37:58.264Z,14056.00
2023-05-15T11:38:58.236Z,13844.00
2023-05-15T11:39:58.249Z,13460.00
2023-05-15T11:40:58.236Z,13636.00
2023-05-15T11:41:59.299Z,14116.00
2023-05-15T11:42:58.204Z,14448.00
2023-05-15T11:43:58.160Z,14952.00
2023-05-15T11:44:58.173Z,14936.00
2023-05-15T11:45:58.221Z,15044.00
2023-05-15T11:46:58.226Z,15300.00
2023-05-15T11:47:58.159Z,15724.00
2023-05-15T11:48:59.493Z,15672.00
2023-05-15T11:49:58.102Z,15732.00
2023-05-15T11:50:58.108Z,16056.00
2023-05-15T11:51:58.063Z,15772.00
2023-05-15T11:52:58.074Z,15352.00
2023-05-15T11:53:58.027Z,15380.00
2023-05-15T11:54:58.029Z,15540.00
2023-05-15T11:55:58.020Z,15652.00
2023-05-15T11:56:58.006Z,15936.00
2023-05-15T11:57:57.971Z,16176.00
2023-05-15T11:58:57.988Z,16236.00
2023-05-15T11:59:57.965Z,15976.00
2023-05-15T12:00:57.976Z,16036.00
2023-05-15T12:01:57.943Z,15656.00
2023-05-15T12:02:58.036Z,15532.00
2023-05-15T12:03:58.140Z,14892.00
2023-05-15T12:04:57.931Z,14388.00
2023-05-15T12:06:00.000Z,14360.00
2023-05-15T12:06:57.912Z,14348.00
2023-05-15T12:07:57.859Z,14240.00
2023-05-15T12:08:57.834Z,14288.00
2023-05-15T12:09:58.654Z,14596.00
2023-05-15T12:10:57.835Z,14668.00
2023-05-15T12:11:57.811Z,14744.00
2023-05-15T12:12:57.817Z,14488.00
2023-05-15T12:13:57.761Z,14680.00
2023-05-15T12:14:57.788Z,14808.00
2023-05-15T12:15:57.758Z,15276.00
2023-05-15T12:16:57.865Z,15824.00
2023-05-15T12:17:57.771Z,16476.00
2023-05-15T12:18:57.910Z,16796.00
2023-05-15T12:19:57.708Z,17188.00
2023-05-15T12:20:57.689Z,17984.00
2023-05-15T12:21:57.682Z,18560.00
2023-05-15T12:22:57.653Z,18560.00
2023-05-15T12:24:06.910Z,18720.00
2023-05-15T12:24:57.644Z,19072.00
2023-05-15T12:25:57.613Z,18688.00
2023-05-15T12:26:57.804Z,18752.00
2023-05-15T12:27:57.582Z,18784.00
2023-05-15T12:28:57.624Z,18592.00
2023-05-15T12:29:57.587Z,18496.00
2023-05-15T12:30:57.574Z,18464.00
2023-05-15T12:31:57.610Z,18080.00
2023-05-15T12:32:57.564Z,17324.00
2023-05-15T12:33:57.545Z,16976.00
2023-05-15T12:34:57.510Z,17160.00
2023-05-15T12:36:01.056Z,17216.00
2023-05-15T12:36:57.478Z,17120.00
2023-05-15T12:37:57.478Z,16988.00
2023-05-15T12:38:57.448Z,16644.00
2023-05-15T12:39:57.477Z,16556.00
2023-05-15T12:40:57.423Z,16532.00
2023-05-15T12:41:57.428Z,16656.00
2023-05-15T12:42:57.443Z,16796.00
2023-05-15T12:43:57.405Z,17204.00
2023-05-15T12:44:57.405Z,17608.00
2023-05-15T12:45:57.441Z,18032.00
2023-05-15T12:46:57.374Z,18592.00
2023-05-15T12:47:57.386Z,18688.00
2023-05-15T12:48:57.352Z,18592.00
2023-05-15T12:49:57.331Z,18464.00
2023-05-15T12:50:57.310Z,17604.00
2023-05-15T12:51:57.290Z,16948.00
2023-05-15T12:52:57.294Z,16612.00
2023-05-15T12:53:57.266Z,16180.00
2023-05-15T12:54:57.300Z,16272.00
2023-05-15T12:55:57.242Z,16676.00
2023-05-15T12:56:57.692Z,16704.00
2023-05-15T12:57:57.245Z,16224.00
2023-05-15T12:58:57.269Z,15808.00
2023-05-15T12:59:57.219Z,15764.00
2023-05-15T13:00:57.226Z,15828.00
2023-05-15T13:01:57.297Z,16128.00
2023-05-15T13:02:57.279Z,16496.00
2023-05-15T13:03:57.409Z,16828.00
2023-05-15T13:04:57.204Z,17332.00
2023-05-15T13:05:57.173Z,18112.00
2023-05-15T13:06:57.177Z,18976.00
2023-05-15T13:07:57.107Z,20352.00
2023-05-15T13:08:57.102Z,21024.00
2023-05-15T13:09:57.124Z,19744.00
2023-05-15T13:10:57.130Z,19328.00
2023-05-15T13:12:47.654Z,17348.00
2023-05-15T13:13:47.579Z,21760.00
2023-05-15T13:14:47.573Z,22976.00
2023-05-15T13:15:47.596Z,23648.00
2023-05-15T13:16:47.534Z,26784.00
2023-05-15T13:17:47.521Z,29888.00
2023-05-15T13:18:47.606Z,43136.00
2023-05-15T13:19:47.502Z,47392.00
2023-05-15T13:20:47.506Z,48000.00
2023-05-15T13:21:47.461Z,49600.00
2023-05-15T13:22:47.461Z,51104.00
2023-05-15T13:23:47.452Z,50528.00
2023-05-15T13:24:47.469Z,51008.00
2023-05-15T13:25:47.460Z,54144.00
2023-05-15T13:26:47.459Z,55488.00
2023-05-15T13:27:47.421Z,51936.00
2023-05-15T13:28:47.460Z,22112.00
2023-05-15T13:29:47.394Z,24256.00
2023-05-15T13:30:47.413Z,58848.00
2023-05-15T13:31:47.392Z,60512.00
2023-05-15T13:32:47.420Z,62560.00
2023-05-15T13:33:47.339Z,61504.00
2023-05-15T13:34:47.343Z,60320.00
2023-05-15T13:35:47.362Z,63488.00
2023-05-15T13:36:47.343Z,63072.00
2023-05-15T13:37:47.331Z,63616.00
2023-05-15T13:38:47.336Z,63072.00
2023-05-15T13:39:47.319Z,64160.00
2023-05-15T13:40:47.308Z,63424.00
2023-05-15T13:41:47.289Z,64448.00
2023-05-15T13:42:47.266Z,64992.00
2023-05-15T13:43:47.265Z,64480.00
2023-05-15T13:44:47.274Z,61344.00
2023-05-15T13:45:47.262Z,63040.00
2023-05-15T13:46:47.260Z,63776.00
2023-05-15T13:47:47.262Z,65376.00
2023-05-15T13:48:47.247Z,61952.00
2023-05-15T13:49:47.213Z,64640.00
2023-05-15T13:50:47.256Z,63840.00
2023-05-15T13:51:47.178Z,64384.00
2023-05-15T13:52:47.186Z,24736.00
2023-05-15T13:53:47.158Z,59648.00
2023-05-15T13:54:47.159Z,64512.00
2023-05-15T13:57:20.793Z,42560.00
2023-05-15T13:58:20.754Z,63872.00
2023-05-15T13:59:20.764Z,66048.00
2023-05-15T14:00:20.725Z,65888.00
2023-05-15T14:01:20.784Z,64512.00
2023-05-15T14:02:20.725Z,64128.00
2023-05-15T14:03:20.848Z,63072.00
2023-05-15T14:04:20.791Z,62208.00
2023-05-15T14:09:18.115Z,20736.00
2023-05-15T14:10:18.107Z,56768.00
2023-05-15T14:11:18.112Z,61920.00
2023-05-15T14:13:48.709Z,19328.00
2023-05-15T14:18:09.875Z,55936.00
2023-05-15T14:19:09.880Z,20672.00
2023-05-15T14:20:48.916Z,45280.00
2023-05-15T14:21:48.879Z,60096.00
2023-05-15T14:22:48.883Z,22752.00
2023-05-15T14:23:48.848Z,21024.00
2023-05-15T14:24:48.861Z,19200.00
2023-05-15T14:26:01.727Z,19744.00
2023-05-15T14:27:43.409Z,20064.00
2023-05-15T14:30:32.230Z,53472.00
2023-05-15T14:31:32.204Z,54592.00
2023-05-15T14:32:32.202Z,53472.00
2023-05-15T14:33:32.206Z,52640.00
2023-05-15T14:38:40.252Z,49248.00
2023-05-15T14:39:40.231Z,49760.00
2023-05-15T14:40:40.229Z,45792.00
2023-05-15T14:41:40.231Z,36768.00
2023-05-15T14:42:40.198Z,33664.00
2023-05-15T14:43:40.186Z,19424.00
2023-05-15T14:44:40.170Z,44032.00
2023-05-15T14:45:40.164Z,45088.00
2023-05-15T14:46:40.296Z,47072.00
2023-05-15T14:47:40.157Z,48768.00
2023-05-15T14:48:40.146Z,52256.00
2023-05-15T14:49:40.143Z,53728.00
2023-05-15T14:50:40.130Z,54464.00
2023-05-15T14:51:40.122Z,55168.00
2023-05-15T14:52:40.095Z,57248.00
2023-05-15T14:53:40.111Z,57984.00
2023-05-15T14:54:40.097Z,61376.00
2023-05-15T14:55:40.108Z,62592.00
2023-05-15T14:56:40.065Z,63936.00
2023-05-15T14:57:40.055Z,64896.00
2023-05-15T14:58:40.057Z,61344.00
2023-05-15T14:59:40.047Z,56032.00
2023-05-15T15:00:40.023Z,49472.00
2023-05-15T15:01:40.327Z,44256.00
2023-05-15T15:02:40.033Z,39296.00
2023-05-15T15:03:40.124Z,38816.00
2023-05-15T15:04:39.992Z,41472.00
2023-05-15T15:05:40.014Z,42304.00
2023-05-15T15:06:39.991Z,45664.00
2023-05-15T15:07:39.980Z,46240.00
2023-05-15T15:08:39.976Z,47456.00
2023-05-15T15:09:39.975Z,45664.00
2023-05-15T15:10:39.977Z,51072.00
2023-05-15T15:11:39.957Z,58720.00
2023-05-15T15:12:39.962Z,59712.00
2023-05-15T15:13:39.946Z,60224.00
2023-05-15T15:14:39.913Z,60256.00
2023-05-15T15:15:39.914Z,51072.00
2023-05-15T15:18:15.902Z,52736.00
2023-05-15T15:19:18.969Z,58400.00
2023-05-15T15:20:15.880Z,62592.00
2023-05-15T15:21:15.923Z,63520.00
2023-05-15T15:22:15.952Z,26592.00
2023-05-15T15:23:15.910Z,55872.00
2023-05-15T15:24:15.878Z,43936.00
2023-05-15T15:41:34.496Z,22976.00
2023-05-15T15:47:05.974Z,18272.00
2023-05-15T15:48:05.986Z,20256.00
2023-05-15T15:50:12.760Z,24800.00
2023-05-15T15:51:12.776Z,21472.00
2023-05-15T15:52:12.731Z,24320.00
2023-05-15T16:00:27.454Z,34656.00
2023-05-15T16:01:27.415Z,35008.00
2023-05-15T16:02:27.364Z,33184.00
2023-05-15T16:05:29.638Z,33856.00
2023-05-15T16:09:56.965Z,30368.00
2023-05-15T16:10:49.178Z,30464.00
2023-05-15T16:11:49.136Z,29792.00
2023-05-15T16:13:42.045Z,26880.00
2023-05-15T16:20:58.485Z,29312.00
2023-05-15T16:21:58.371Z,29120.00
2023-05-15T16:22:58.358Z,28672.00
2023-05-15T16:27:47.036Z,28640.00
2023-05-15T16:28:46.980Z,29248.00
2023-05-15T16:29:46.997Z,28640.00
2023-05-15T16:30:49.260Z,28128.00
2023-05-15T16:31:47.111Z,27328.00
2023-05-15T16:33:43.725Z,28000.00
2023-05-15T16:34:43.733Z,27648.00
2023-05-15T16:35:43.717Z,27424.00
2023-05-15T16:36:43.728Z,25728.00
2023-05-15T16:37:43.675Z,26144.00
2023-05-15T16:38:43.675Z,26912.00
2023-05-15T16:39:43.662Z,23520.00
2023-05-15T16:40:43.652Z,25504.00
2023-05-15T16:41:43.648Z,24704.00
2023-05-15T16:43:10.427Z,23264.00
2023-05-15T16:44:10.399Z,24352.00
2023-05-15T16:45:10.382Z,24896.00
2023-05-15T16:46:10.458Z,24096.00
2023-05-15T16:47:10.438Z,24544.00
2023-05-15T16:48:10.424Z,25120.00
2023-05-15T16:49:10.362Z,22688.00
2023-05-15T17:02:08.564Z,18944.00
2023-05-15T17:04:02.077Z,14624.00
2023-05-15T17:05:02.011Z,14112.00
2023-05-15T17:06:01.988Z,14432.00
2023-05-15T17:15:02.669Z,16128.00
